sensor_id;sensor_type;location;lat;lon;timestamp;P1;durP1;ratioP1;P2;durP2;ratioP2
23567;SDS011;11962;50.838;4.430;2023-04-25T00:01:36;22.33;;;4.65;;
23567;SDS011;11962;50.838;4.430;2023-04-25T00:04:03;16.17;;;4.55;;
23567;SDS011;11962;50.838;4.430;2023-04-25T00:06:31;19.77;;;4.45;;
23567;SDS011;11962;50.838;4.430;2023-04-25T00:08:57;18.90;;;4.68;;
23567;SDS011;11962;50.838;4.430;2023-04-25T00:11:23;21.70;;;4.40;;
23567;SDS011;11962;50.838;4.430;2023-04-25T00:13:49;19.17;;;4.63;;
23567;SDS011;11962;50.838;4.430;2023-04-25T00:16:19;22.20;;;4.57;;
23567;SDS011;11962;50.838;4.430;2023-04-25T00:18:45;14.18;;;4.15;;
23567;SDS011;11962;50.838;4.430;2023-04-25T00:21:16;16.50;;;4.10;;
23567;SDS011;11962;50.838;4.430;2023-04-25T00:23:45;15.63;;;4.53;;
23567;SDS011;11962;50.838;4.430;2023-04-25T00:26:11;14.82;;;3.72;;
23567;SDS011;11962;50.838;4.430;2023-04-25T00:28:37;12.50;;;3.63;;
23567;SDS011;11962;50.838;4.430;2023-04-25T00:31:04;16.52;;;3.83;;
23567;SDS011;11962;50.838;4.430;2023-04-25T00:33:29;17.77;;;3.85;;
23567;SDS011;11962;50.838;4.430;2023-04-25T00:35:55;19.23;;;4.18;;
23567;SDS011;11962;50.838;4.430;2023-04-25T00:38:21;17.25;;;3.85;;
23567;SDS011;11962;50.838;4.430;2023-04-25T00:40:47;16.40;;;4.25;;
23567;SDS011;11962;50.838;4.430;2023-04-25T00:43:13;13.93;;;3.83;;
23567;SDS011;11962;50.838;4.430;2023-04-25T00:45:39;18.98;;;4.15;;
23567;SDS011;11962;50.838;4.430;2023-04-25T00:51:21;11.27;;;3.42;;
23567;SDS011;11962;50.838;4.430;2023-04-25T00:53:47;17.75;;;3.85;;
23567;SDS011;11962;50.838;4.430;2023-04-25T00:56:14;21.48;;;4.68;;
23567;SDS011;11962;50.838;4.430;2023-04-25T00:58:41;16.05;;;4.50;;
23567;SDS011;11962;50.838;4.430;2023-04-25T01:01:08;17.48;;;4.47;;
23567;SDS011;11962;50.838;4.430;2023-04-25T01:03:34;19.92;;;4.57;;
23567;SDS011;11962;50.838;4.430;2023-04-25T01:06:07;14.98;;;4.07;;
23567;SDS011;11962;50.838;4.430;2023-04-25T01:08:34;15.52;;;4.35;;
23567;SDS011;11962;50.838;4.430;2023-04-25T01:11:00;17.73;;;4.15;;
23567;SDS011;11962;50.838;4.430;2023-04-25T01:13:26;20.50;;;4.80;;
23567;SDS011;11962;50.838;4.430;2023-04-25T01:15:52;16.58;;;4.93;;
23567;SDS011;11962;50.838;4.430;2023-04-25T01:18:18;15.55;;;4.35;;
23567;SDS011;11962;50.838;4.430;2023-04-25T01:20:45;18.27;;;4.20;;
23567;SDS011;11962;50.838;4.430;2023-04-25T01:23:12;18.60;;;5.00;;
23567;SDS011;11962;50.838;4.430;2023-04-25T01:25:38;15.73;;;4.70;;
23567;SDS011;11962;50.838;4.430;2023-04-25T01:28:05;19.42;;;5.10;;
23567;SDS011;11962;50.838;4.430;2023-04-25T01:30:31;14.30;;;4.38;;
23567;SDS011;11962;50.838;4.430;2023-04-25T01:32:57;21.85;;;4.72;;
23567;SDS011;11962;50.838;4.430;2023-04-25T01:35:24;24.50;;;5.30;;
23567;SDS011;11962;50.838;4.430;2023-04-25T01:37:50;17.52;;;4.25;;
23567;SDS011;11962;50.838;4.430;2023-04-25T01:40:17;18.02;;;4.10;;
23567;SDS011;11962;50.838;4.430;2023-04-25T01:42:44;23.33;;;4.85;;
23567;SDS011;11962;50.838;4.430;2023-04-25T01:45:10;16.85;;;4.32;;
23567;SDS011;11962;50.838;4.430;2023-04-25T01:47:37;17.90;;;5.13;;
23567;SDS011;11962;50.838;4.430;2023-04-25T01:50:05;19.33;;;4.33;;
23567;SDS011;11962;50.838;4.430;2023-04-25T01:52:32;21.38;;;5.57;;
23567;SDS011;11962;50.838;4.430;2023-04-25T01:54:59;20.42;;;4.80;;
23567;SDS011;11962;50.838;4.430;2023-04-25T01:57:26;18.10;;;5.05;;
23567;SDS011;11962;50.838;4.430;2023-04-25T01:59:53;17.83;;;5.13;;
23567;SDS011;11962;50.838;4.430;2023-04-25T02:02:24;17.00;;;4.72;;
23567;SDS011;11962;50.838;4.430;2023-04-25T02:04:51;20.67;;;4.97;;
23567;SDS011;11962;50.838;4.430;2023-04-25T02:07:17;16.40;;;4.38;;
23567;SDS011;11962;50.838;4.430;2023-04-25T02:09:42;17.42;;;4.70;;
23567;SDS011;11962;50.838;4.430;2023-04-25T02:12:09;21.17;;;4.80;;
23567;SDS011;11962;50.838;4.430;2023-04-25T02:14:35;23.35;;;5.28;;
23567;SDS011;11962;50.838;4.430;2023-04-25T02:17:01;21.52;;;4.85;;
23567;SDS011;11962;50.838;4.430;2023-04-25T02:19:27;18.83;;;4.82;;
23567;SDS011;11962;50.838;4.430;2023-04-25T02:21:53;20.55;;;5.72;;
23567;SDS011;11962;50.838;4.430;2023-04-25T02:24:19;17.92;;;5.70;;
23567;SDS011;11962;50.838;4.430;2023-04-25T02:26:45;17.23;;;5.30;;
23567;SDS011;11962;50.838;4.430;2023-04-25T02:29:12;19.63;;;5.38;;
23567;SDS011;11962;50.838;4.430;2023-04-25T02:31:38;19.85;;;5.75;;
23567;SDS011;11962;50.838;4.430;2023-04-25T02:34:03;20.50;;;6.00;;
23567;SDS011;11962;50.838;4.430;2023-04-25T02:36:29;22.60;;;5.60;;
23567;SDS011;11962;50.838;4.430;2023-04-25T02:38:59;16.80;;;5.53;;
23567;SDS011;11962;50.838;4.430;2023-04-25T02:41:25;21.33;;;6.07;;
23567;SDS011;11962;50.838;4.430;2023-04-25T02:43:51;17.10;;;5.00;;
23567;SDS011;11962;50.838;4.430;2023-04-25T02:46:17;18.63;;;5.32;;
23567;SDS011;11962;50.838;4.430;2023-04-25T02:48:43;22.45;;;5.72;;
23567;SDS011;11962;50.838;4.430;2023-04-25T02:51:09;21.35;;;5.13;;
23567;SDS011;11962;50.838;4.430;2023-04-25T02:53:35;16.85;;;5.38;;
23567;SDS011;11962;50.838;4.430;2023-04-25T02:56:01;23.52;;;5.18;;
23567;SDS011;11962;50.838;4.430;2023-04-25T02:58:26;23.92;;;5.80;;
23567;SDS011;11962;50.838;4.430;2023-04-25T03:00:52;19.35;;;4.63;;
23567;SDS011;11962;50.838;4.430;2023-04-25T03:03:19;22.05;;;5.72;;
23567;SDS011;11962;50.838;4.430;2023-04-25T03:05:48;24.83;;;5.38;;
23567;SDS011;11962;50.838;4.430;2023-04-25T03:08:15;22.63;;;5.30;;
23567;SDS011;11962;50.838;4.430;2023-04-25T03:10:42;22.25;;;5.78;;
23567;SDS011;11962;50.838;4.430;2023-04-25T03:13:08;19.95;;;4.82;;
23567;SDS011;11962;50.838;4.430;2023-04-25T03:15:34;23.98;;;5.10;;
23567;SDS011;11962;50.838;4.430;2023-04-25T03:18:00;20.10;;;5.15;;
23567;SDS011;11962;50.838;4.430;2023-04-25T03:20:26;17.20;;;4.80;;
23567;SDS011;11962;50.838;4.430;2023-04-25T03:22:52;21.50;;;5.65;;
23567;SDS011;11962;50.838;4.430;2023-04-25T03:25:18;22.05;;;4.93;;
23567;SDS011;11962;50.838;4.430;2023-04-25T03:27:44;21.15;;;5.18;;
23567;SDS011;11962;50.838;4.430;2023-04-25T03:30:10;14.07;;;4.85;;
23567;SDS011;11962;50.838;4.430;2023-04-25T03:32:36;19.58;;;5.43;;
23567;SDS011;11962;50.838;4.430;2023-04-25T03:35:02;18.60;;;5.10;;
23567;SDS011;11962;50.838;4.430;2023-04-25T03:37:28;22.88;;;5.28;;
23567;SDS011;11962;50.838;4.430;2023-04-25T03:39:54;19.95;;;4.88;;
23567;SDS011;11962;50.838;4.430;2023-04-25T03:42:20;21.55;;;4.10;;
23567;SDS011;11962;50.838;4.430;2023-04-25T03:44:48;24.05;;;5.65;;
23567;SDS011;11962;50.838;4.430;2023-04-25T03:47:14;21.00;;;4.53;;
23567;SDS011;11962;50.838;4.430;2023-04-25T03:49:41;17.42;;;4.57;;
23567;SDS011;11962;50.838;4.430;2023-04-25T03:52:07;18.88;;;4.78;;
23567;SDS011;11962;50.838;4.430;2023-04-25T03:54:33;19.27;;;5.20;;
23567;SDS011;11962;50.838;4.430;2023-04-25T03:56:58;18.63;;;5.38;;
23567;SDS011;11962;50.838;4.430;2023-04-25T03:59:24;17.13;;;4.50;;
23567;SDS011;11962;50.838;4.430;2023-04-25T04:01:51;26.48;;;5.53;;
23567;SDS011;11962;50.838;4.430;2023-04-25T04:04:17;28.92;;;6.10;;
23567;SDS011;11962;50.838;4.430;2023-04-25T04:06:43;13.15;;;4.90;;
23567;SDS011;11962;50.838;4.430;2023-04-25T04:09:09;23.73;;;5.88;;
23567;SDS011;11962;50.838;4.430;2023-04-25T04:11:36;20.33;;;5.18;;
23567;SDS011;11962;50.838;4.430;2023-04-25T04:14:04;15.40;;;4.53;;
23567;SDS011;11962;50.838;4.430;2023-04-25T04:16:31;16.90;;;4.40;;
23567;SDS011;11962;50.838;4.430;2023-04-25T04:18:57;15.63;;;3.53;;
23567;SDS011;11962;50.838;4.430;2023-04-25T04:21:22;18.70;;;4.28;;
23567;SDS011;11962;50.838;4.430;2023-04-25T04:23:48;18.20;;;4.30;;
23567;SDS011;11962;50.838;4.430;2023-04-25T04:26:14;21.42;;;4.30;;
23567;SDS011;11962;50.838;4.430;2023-04-25T04:28:43;16.55;;;4.05;;
23567;SDS011;11962;50.838;4.430;2023-04-25T04:31:09;16.30;;;4.10;;
23567;SDS011;11962;50.838;4.430;2023-04-25T04:33:35;13.13;;;4.43;;
23567;SDS011;11962;50.838;4.430;2023-04-25T04:36:02;15.43;;;4.68;;
23567;SDS011;11962;50.838;4.430;2023-04-25T04:38:29;16.02;;;4.20;;
23567;SDS011;11962;50.838;4.430;2023-04-25T04:40:55;19.17;;;4.25;;
23567;SDS011;11962;50.838;4.430;2023-04-25T04:43:21;13.73;;;4.53;;
23567;SDS011;11962;50.838;4.430;2023-04-25T04:45:48;24.42;;;4.72;;
23567;SDS011;11962;50.838;4.430;2023-04-25T04:48:15;20.30;;;4.78;;
23567;SDS011;11962;50.838;4.430;2023-04-25T04:50:44;16.23;;;4.03;;
23567;SDS011;11962;50.838;4.430;2023-04-25T04:53:10;12.85;;;4.47;;
23567;SDS011;11962;50.838;4.430;2023-04-25T04:55:36;10.85;;;4.65;;
23567;SDS011;11962;50.838;4.430;2023-04-25T04:58:02;15.95;;;4.40;;
23567;SDS011;11962;50.838;4.430;2023-04-25T05:00:28;18.08;;;4.47;;
23567;SDS011;11962;50.838;4.430;2023-04-25T05:02:55;16.98;;;4.28;;
23567;SDS011;11962;50.838;4.430;2023-04-25T05:05:21;14.55;;;4.38;;
23567;SDS011;11962;50.838;4.430;2023-04-25T05:07:47;10.85;;;4.63;;
23567;SDS011;11962;50.838;4.430;2023-04-25T05:10:13;21.13;;;4.93;;
23567;SDS011;11962;50.838;4.430;2023-04-25T05:12:39;20.92;;;4.65;;
23567;SDS011;11962;50.838;4.430;2023-04-25T05:15:05;17.48;;;4.50;;
23567;SDS011;11962;50.838;4.430;2023-04-25T05:17:31;16.42;;;5.63;;
23567;SDS011;11962;50.838;4.430;2023-04-25T05:19:57;17.70;;;5.13;;
23567;SDS011;11962;50.838;4.430;2023-04-25T05:22:23;20.92;;;6.13;;
23567;SDS011;11962;50.838;4.430;2023-04-25T05:24:49;17.33;;;5.53;;
23567;SDS011;11962;50.838;4.430;2023-04-25T05:27:17;20.60;;;5.63;;
23567;SDS011;11962;50.838;4.430;2023-04-25T05:29:43;15.25;;;5.90;;
23567;SDS011;11962;50.838;4.430;2023-04-25T05:32:09;16.13;;;5.30;;
23567;SDS011;11962;50.838;4.430;2023-04-25T05:34:35;16.17;;;4.30;;
23567;SDS011;11962;50.838;4.430;2023-04-25T05:37:01;17.70;;;4.47;;
23567;SDS011;11962;50.838;4.430;2023-04-25T05:39:27;19.42;;;4.95;;
23567;SDS011;11962;50.838;4.430;2023-04-25T05:41:53;13.68;;;3.90;;
23567;SDS011;11962;50.838;4.430;2023-04-25T05:44:22;15.20;;;3.85;;
23567;SDS011;11962;50.838;4.430;2023-04-25T05:46:51;19.48;;;4.22;;
23567;SDS011;11962;50.838;4.430;2023-04-25T05:49:17;14.85;;;3.92;;
23567;SDS011;11962;50.838;4.430;2023-04-25T05:51:43;18.00;;;4.03;;
23567;SDS011;11962;50.838;4.430;2023-04-25T05:54:09;12.07;;;4.05;;
23567;SDS011;11962;50.838;4.430;2023-04-25T05:56:35;18.83;;;4.50;;
23567;SDS011;11962;50.838;4.430;2023-04-25T05:59:00;13.48;;;3.97;;
23567;SDS011;11962;50.838;4.430;2023-04-25T06:01:26;20.45;;;4.97;;
23567;SDS011;11962;50.838;4.430;2023-04-25T06:03:52;15.70;;;4.55;;
23567;SDS011;11962;50.838;4.430;2023-04-25T06:06:18;17.10;;;4.07;;
23567;SDS011;11962;50.838;4.430;2023-04-25T06:08:44;16.60;;;5.13;;
23567;SDS011;11962;50.838;4.430;2023-04-25T06:11:10;18.05;;;4.80;;
23567;SDS011;11962;50.838;4.430;2023-04-25T06:13:36;18.27;;;4.68;;
23567;SDS011;11962;50.838;4.430;2023-04-25T06:16:02;18.38;;;4.70;;
23567;SDS011;11962;50.838;4.430;2023-04-25T06:18:28;16.48;;;4.38;;
23567;SDS011;11962;50.838;4.430;2023-04-25T06:20:54;18.63;;;5.55;;
23567;SDS011;11962;50.838;4.430;2023-04-25T06:23:20;21.98;;;5.20;;
23567;SDS011;11962;50.838;4.430;2023-04-25T06:25:46;16.83;;;4.70;;
23567;SDS011;11962;50.838;4.430;2023-04-25T06:28:11;23.50;;;6.28;;
23567;SDS011;11962;50.838;4.430;2023-04-25T06:30:37;22.65;;;6.13;;
23567;SDS011;11962;50.838;4.430;2023-04-25T06:33:03;18.02;;;5.35;;
23567;SDS011;11962;50.838;4.430;2023-04-25T06:35:29;22.42;;;5.68;;
23567;SDS011;11962;50.838;4.430;2023-04-25T06:37:55;18.00;;;5.53;;
23567;SDS011;11962;50.838;4.430;2023-04-25T06:40:20;18.10;;;6.28;;
23567;SDS011;11962;50.838;4.430;2023-04-25T06:42:46;24.73;;;6.15;;
23567;SDS011;11962;50.838;4.430;2023-04-25T06:45:12;17.70;;;6.13;;
23567;SDS011;11962;50.838;4.430;2023-04-25T06:47:38;20.33;;;6.10;;
23567;SDS011;11962;50.838;4.430;2023-04-25T06:50:04;24.38;;;5.82;;
23567;SDS011;11962;50.838;4.430;2023-04-25T06:52:30;18.08;;;6.38;;
23567;SDS011;11962;50.838;4.430;2023-04-25T06:54:57;16.65;;;5.38;;
23567;SDS011;11962;50.838;4.430;2023-04-25T06:57:23;22.08;;;5.60;;
23567;SDS011;11962;50.838;4.430;2023-04-25T06:59:48;23.33;;;4.80;;
23567;SDS011;11962;50.838;4.430;2023-04-25T07:02:14;13.68;;;4.28;;
23567;SDS011;11962;50.838;4.430;2023-04-25T07:04:40;11.90;;;3.97;;
23567;SDS011;11962;50.838;4.430;2023-04-25T07:07:06;15.73;;;4.57;;
23567;SDS011;11962;50.838;4.430;2023-04-25T07:09:31;11.40;;;3.40;;
23567;SDS011;11962;50.838;4.430;2023-04-25T07:11:59;15.02;;;3.95;;
23567;SDS011;11962;50.838;4.430;2023-04-25T07:14:26;17.13;;;4.15;;
23567;SDS011;11962;50.838;4.430;2023-04-25T07:16:52;10.48;;;3.45;;
23567;SDS011;11962;50.838;4.430;2023-04-25T07:19:20;15.88;;;4.82;;
23567;SDS011;11962;50.838;4.430;2023-04-25T07:21:46;16.27;;;5.03;;
23567;SDS011;11962;50.838;4.430;2023-04-25T07:24:12;25.38;;;8.75;;
23567;SDS011;11962;50.838;4.430;2023-04-25T07:26:38;17.98;;;3.85;;
23567;SDS011;11962;50.838;4.430;2023-04-25T07:29:04;13.52;;;3.83;;
23567;SDS011;11962;50.838;4.430;2023-04-25T07:31:30;17.70;;;3.58;;
23567;SDS011;11962;50.838;4.430;2023-04-25T07:33:56;13.10;;;3.20;;
23567;SDS011;11962;50.838;4.430;2023-04-25T07:36:21;15.52;;;3.30;;
23567;SDS011;11962;50.838;4.430;2023-04-25T07:38:47;16.17;;;3.15;;
23567;SDS011;11962;50.838;4.430;2023-04-25T07:41:13;8.90;;;3.40;;
23567;SDS011;11962;50.838;4.430;2023-04-25T07:43:39;11.48;;;3.60;;
23567;SDS011;11962;50.838;4.430;2023-04-25T07:46:04;15.10;;;3.30;;
23567;SDS011;11962;50.838;4.430;2023-04-25T07:48:31;12.02;;;3.08;;
23567;SDS011;11962;50.838;4.430;2023-04-25T07:50:57;11.20;;;2.50;;
23567;SDS011;11962;50.838;4.430;2023-04-25T07:53:22;13.02;;;2.78;;
23567;SDS011;11962;50.838;4.430;2023-04-25T07:55:48;12.23;;;2.70;;
23567;SDS011;11962;50.838;4.430;2023-04-25T07:58:15;15.70;;;2.92;;
23567;SDS011;11962;50.838;4.430;2023-04-25T08:00:46;11.15;;;2.80;;
23567;SDS011;11962;50.838;4.430;2023-04-25T08:03:12;13.52;;;3.17;;
23567;SDS011;11962;50.838;4.430;2023-04-25T08:05:37;9.23;;;2.72;;
23567;SDS011;11962;50.838;4.430;2023-04-25T08:08:03;11.57;;;2.80;;
23567;SDS011;11962;50.838;4.430;2023-04-25T08:10:31;9.88;;;2.90;;
23567;SDS011;11962;50.838;4.430;2023-04-25T08:12:57;12.25;;;2.80;;
23567;SDS011;11962;50.838;4.430;2023-04-25T08:15:23;9.95;;;2.70;;
23567;SDS011;11962;50.838;4.430;2023-04-25T08:17:51;8.73;;;2.70;;
23567;SDS011;11962;50.838;4.430;2023-04-25T08:20:17;8.85;;;2.78;;
23567;SDS011;11962;50.838;4.430;2023-04-25T08:22:43;8.75;;;2.70;;
23567;SDS011;11962;50.838;4.430;2023-04-25T08:25:09;8.35;;;2.85;;
23567;SDS011;11962;50.838;4.430;2023-04-25T08:27:35;13.25;;;3.17;;
23567;SDS011;11962;50.838;4.430;2023-04-25T08:30:02;14.20;;;2.97;;
23567;SDS011;11962;50.838;4.430;2023-04-25T08:32:28;10.82;;;2.90;;
23567;SDS011;11962;50.838;4.430;2023-04-25T08:34:54;8.05;;;2.65;;
23567;SDS011;11962;50.838;4.430;2023-04-25T08:37:20;10.85;;;2.80;;
23567;SDS011;11962;50.838;4.430;2023-04-25T08:39:46;8.60;;;2.60;;
23567;SDS011;11962;50.838;4.430;2023-04-25T08:42:18;11.35;;;2.53;;
23567;SDS011;11962;50.838;4.430;2023-04-25T08:44:46;14.63;;;2.83;;
23567;SDS011;11962;50.838;4.430;2023-04-25T08:47:13;5.85;;;2.20;;
23567;SDS011;11962;50.838;4.430;2023-04-25T08:49:40;9.93;;;2.40;;
23567;SDS011;11962;50.838;4.430;2023-04-25T08:52:10;10.48;;;1.92;;
23567;SDS011;11962;50.838;4.430;2023-04-25T08:54:38;9.30;;;2.57;;
23567;SDS011;11962;50.838;4.430;2023-04-25T08:57:09;10.48;;;2.45;;
23567;SDS011;11962;50.838;4.430;2023-04-25T08:59:36;8.32;;;2.05;;
23567;SDS011;11962;50.838;4.430;2023-04-25T09:02:04;8.38;;;2.05;;
23567;SDS011;11962;50.838;4.430;2023-04-25T09:04:31;8.15;;;2.03;;
23567;SDS011;11962;50.838;4.430;2023-04-25T09:07:00;10.68;;;2.30;;
23567;SDS011;11962;50.838;4.430;2023-04-25T09:09:25;7.05;;;2.28;;
23567;SDS011;11962;50.838;4.430;2023-04-25T09:11:51;8.35;;;2.65;;
23567;SDS011;11962;50.838;4.430;2023-04-25T09:19:21;7.05;;;2.00;;
23567;SDS011;11962;50.838;4.430;2023-04-25T09:21:49;6.93;;;1.65;;
23567;SDS011;11962;50.838;4.430;2023-04-25T09:24:15;9.48;;;1.90;;
23567;SDS011;11962;50.838;4.430;2023-04-25T09:26:41;9.82;;;2.10;;
23567;SDS011;11962;50.838;4.430;2023-04-25T09:29:07;8.07;;;2.17;;
23567;SDS011;11962;50.838;4.430;2023-04-25T09:31:33;9.48;;;1.98;;
23567;SDS011;11962;50.838;4.430;2023-04-25T09:33:59;9.82;;;2.15;;
23567;SDS011;11962;50.838;4.430;2023-04-25T09:36:29;9.27;;;2.22;;
23567;SDS011;11962;50.838;4.430;2023-04-25T09:38:55;6.60;;;2.40;;
23567;SDS011;11962;50.838;4.430;2023-04-25T09:41:24;8.38;;;2.17;;
23567;SDS011;11962;50.838;4.430;2023-04-25T09:43:50;10.38;;;2.10;;
23567;SDS011;11962;50.838;4.430;2023-04-25T09:46:16;8.32;;;2.17;;
23567;SDS011;11962;50.838;4.430;2023-04-25T09:48:50;10.23;;;2.10;;
23567;SDS011;11962;50.838;4.430;2023-04-25T09:51:18;8.02;;;2.05;;
23567;SDS011;11962;50.838;4.430;2023-04-25T09:56:11;7.18;;;2.00;;
23567;SDS011;11962;50.838;4.430;2023-04-25T09:58:39;10.93;;;2.20;;
23567;SDS011;11962;50.838;4.430;2023-04-25T10:01:08;6.93;;;2.20;;
23567;SDS011;11962;50.838;4.430;2023-04-25T10:03:35;7.65;;;1.67;;
23567;SDS011;11962;50.838;4.430;2023-04-25T10:06:08;9.40;;;2.25;;
23567;SDS011;11962;50.838;4.430;2023-04-25T10:08:39;6.50;;;1.83;;
23567;SDS011;11962;50.838;4.430;2023-04-25T10:11:09;7.10;;;1.73;;
23567;SDS011;11962;50.838;4.430;2023-04-25T10:13:35;7.50;;;1.83;;
23567;SDS011;11962;50.838;4.430;2023-04-25T10:16:02;6.15;;;1.80;;
23567;SDS011;11962;50.838;4.430;2023-04-25T10:18:30;5.75;;;1.70;;
23567;SDS011;11962;50.838;4.430;2023-04-25T10:20:58;5.30;;;1.63;;
23567;SDS011;11962;50.838;4.430;2023-04-25T10:23:29;6.45;;;1.80;;
23567;SDS011;11962;50.838;4.430;2023-04-25T10:25:56;4.25;;;1.50;;
23567;SDS011;11962;50.838;4.430;2023-04-25T10:28:22;5.50;;;1.55;;
23567;SDS011;11962;50.838;4.430;2023-04-25T10:36:10;4.45;;;1.40;;
23567;SDS011;11962;50.838;4.430;2023-04-25T10:38:41;5.05;;;1.33;;
23567;SDS011;11962;50.838;4.430;2023-04-25T10:41:09;4.22;;;1.10;;
23567;SDS011;11962;50.838;4.430;2023-04-25T10:46:27;5.05;;;1.33;;
23567;SDS011;11962;50.838;4.430;2023-04-25T10:48:57;8.43;;;1.77;;
23567;SDS011;11962;50.838;4.430;2023-04-25T10:51:31;4.03;;;1.08;;
23567;SDS011;11962;50.838;4.430;2023-04-25T10:53:59;11.20;;;1.55;;
23567;SDS011;11962;50.838;4.430;2023-04-25T10:59:08;5.03;;;1.40;;
23567;SDS011;11962;50.838;4.430;2023-04-25T11:01:47;5.80;;;1.30;;
23567;SDS011;11962;50.838;4.430;2023-04-25T11:09:35;5.35;;;1.42;;
23567;SDS011;11962;50.838;4.430;2023-04-25T11:12:03;5.45;;;1.40;;
23567;SDS011;11962;50.838;4.430;2023-04-25T11:14:30;4.72;;;1.40;;
23567;SDS011;11962;50.838;4.430;2023-04-25T11:16:56;9.20;;;1.50;;
23567;SDS011;11962;50.838;4.430;2023-04-25T11:19:23;7.30;;;1.83;;
23567;SDS011;11962;50.838;4.430;2023-04-25T11:21:50;6.53;;;1.60;;
23567;SDS011;11962;50.838;4.430;2023-04-25T11:24:19;4.78;;;1.80;;
23567;SDS011;11962;50.838;4.430;2023-04-25T11:26:50;6.72;;;1.70;;
23567;SDS011;11962;50.838;4.430;2023-04-25T11:29:16;5.50;;;1.40;;
23567;SDS011;11962;50.838;4.430;2023-04-25T11:31:45;4.20;;;1.40;;
23567;SDS011;11962;50.838;4.430;2023-04-25T11:34:11;8.07;;;1.58;;
23567;SDS011;11962;50.838;4.430;2023-04-25T11:36:38;9.13;;;1.70;;
23567;SDS011;11962;50.838;4.430;2023-04-25T11:39:04;10.05;;;1.52;;
23567;SDS011;11962;50.838;4.430;2023-04-25T11:41:31;5.25;;;1.48;;
23567;SDS011;11962;50.838;4.430;2023-04-25T11:43:57;8.00;;;1.55;;
23567;SDS011;11962;50.838;4.430;2023-04-25T11:46:22;6.35;;;1.42;;
23567;SDS011;11962;50.838;4.430;2023-04-25T11:48:48;6.72;;;1.52;;
23567;SDS011;11962;50.838;4.430;2023-04-25T11:51:15;8.23;;;2.13;;
23567;SDS011;11962;50.838;4.430;2023-04-25T11:53:41;6.85;;;1.73;;
23567;SDS011;11962;50.838;4.430;2023-04-25T12:01:27;7.88;;;1.35;;
23567;SDS011;11962;50.838;4.430;2023-04-25T12:03:57;6.15;;;1.40;;
23567;SDS011;11962;50.838;4.430;2023-04-25T12:06:30;8.07;;;1.85;;
23567;SDS011;11962;50.838;4.430;2023-04-25T12:09:06;5.68;;;1.38;;
23567;SDS011;11962;50.838;4.430;2023-04-25T12:11:42;6.72;;;1.60;;
23567;SDS011;11962;50.838;4.430;2023-04-25T12:14:34;3.55;;;1.40;;
23567;SDS011;11962;50.838;4.430;2023-04-25T12:17:02;4.93;;;1.17;;
23567;SDS011;11962;50.838;4.430;2023-04-25T12:19:35;3.35;;;1.48;;
23567;SDS011;11962;50.838;4.430;2023-04-25T12:22:18;6.30;;;1.42;;
23567;SDS011;11962;50.838;4.430;2023-04-25T12:24:48;5.35;;;1.38;;
23567;SDS011;11962;50.838;4.430;2023-04-25T12:27:15;3.70;;;1.30;;
23567;SDS011;11962;50.838;4.430;2023-04-25T12:29:49;4.70;;;1.30;;
23567;SDS011;11962;50.838;4.430;2023-04-25T12:32:20;6.50;;;1.30;;
23567;SDS011;11962;50.838;4.430;2023-04-25T12:34:46;3.97;;;1.33;;
23567;SDS011;11962;50.838;4.430;2023-04-25T12:37:12;4.57;;;1.27;;
23567;SDS011;11962;50.838;4.430;2023-04-25T12:39:38;6.00;;;1.10;;
23567;SDS011;11962;50.838;4.430;2023-04-25T12:42:04;4.50;;;1.17;;
23567;SDS011;11962;50.838;4.430;2023-04-25T12:44:32;3.65;;;1.17;;
23567;SDS011;11962;50.838;4.430;2023-04-25T12:46:59;3.83;;;1.40;;
23567;SDS011;11962;50.838;4.430;2023-04-25T12:49:25;3.33;;;0.88;;
23567;SDS011;11962;50.838;4.430;2023-04-25T12:51:50;2.67;;;0.90;;
23567;SDS011;11962;50.838;4.430;2023-04-25T12:54:16;3.00;;;0.95;;
23567;SDS011;11962;50.838;4.430;2023-04-25T12:56:42;3.33;;;1.20;;
23567;SDS011;11962;50.838;4.430;2023-04-25T12:59:08;2.65;;;0.93;;
23567;SDS011;11962;50.838;4.430;2023-04-25T13:01:34;3.72;;;0.90;;
23567;SDS011;11962;50.838;4.430;2023-04-25T13:04:00;5.03;;;1.10;;
23567;SDS011;11962;50.838;4.430;2023-04-25T13:06:26;3.63;;;1.13;;
23567;SDS011;11962;50.838;4.430;2023-04-25T13:08:52;3.40;;;1.50;;
23567;SDS011;11962;50.838;4.430;2023-04-25T13:11:18;5.63;;;1.35;;
23567;SDS011;11962;50.838;4.430;2023-04-25T13:13:44;5.47;;;1.58;;
23567;SDS011;11962;50.838;4.430;2023-04-25T13:16:09;4.70;;;1.35;;
23567;SDS011;11962;50.838;4.430;2023-04-25T13:18:36;4.25;;;1.45;;
23567;SDS011;11962;50.838;4.430;2023-04-25T13:21:02;5.07;;;1.67;;
23567;SDS011;11962;50.838;4.430;2023-04-25T13:23:28;4.70;;;1.42;;
23567;SDS011;11962;50.838;4.430;2023-04-25T13:25:55;3.67;;;1.25;;
23567;SDS011;11962;50.838;4.430;2023-04-25T13:28:22;7.10;;;1.70;;
23567;SDS011;11962;50.838;4.430;2023-04-25T13:30:49;3.72;;;1.48;;
23567;SDS011;11962;50.838;4.430;2023-04-25T13:33:14;7.50;;;1.77;;
23567;SDS011;11962;50.838;4.430;2023-04-25T13:35:41;6.07;;;1.60;;
23567;SDS011;11962;50.838;4.430;2023-04-25T13:38:07;5.55;;;1.40;;
23567;SDS011;11962;50.838;4.430;2023-04-25T13:40:34;7.32;;;1.10;;
23567;SDS011;11962;50.838;4.430;2023-04-25T13:43:01;5.82;;;1.10;;
23567;SDS011;11962;50.838;4.430;2023-04-25T13:45:27;4.65;;;1.05;;
23567;SDS011;11962;50.838;4.430;2023-04-25T13:47:52;3.10;;;1.13;;
23567;SDS011;11962;50.838;4.430;2023-04-25T13:50:18;2.67;;;0.68;;
23567;SDS011;11962;50.838;4.430;2023-04-25T13:52:45;3.45;;;1.02;;
23567;SDS011;11962;50.838;4.430;2023-04-25T13:55:11;2.05;;;0.98;;
23567;SDS011;11962;50.838;4.430;2023-04-25T13:57:37;2.30;;;0.95;;
23567;SDS011;11962;50.838;4.430;2023-04-25T14:00:03;6.60;;;1.45;;
23567;SDS011;11962;50.838;4.430;2023-04-25T14:02:37;5.45;;;1.42;;
23567;SDS011;11962;50.838;4.430;2023-04-25T14:05:03;5.20;;;1.30;;
23567;SDS011;11962;50.838;4.430;2023-04-25T14:07:30;3.63;;;1.45;;
23567;SDS011;11962;50.838;4.430;2023-04-25T14:09:56;5.40;;;1.23;;
23567;SDS011;11962;50.838;4.430;2023-04-25T14:12:22;3.13;;;1.10;;
23567;SDS011;11962;50.838;4.430;2023-04-25T14:14:49;5.63;;;1.38;;
23567;SDS011;11962;50.838;4.430;2023-04-25T14:17:14;6.72;;;1.40;;
23567;SDS011;11962;50.838;4.430;2023-04-25T14:19:40;5.97;;;1.40;;
23567;SDS011;11962;50.838;4.430;2023-04-25T14:22:10;7.20;;;1.27;;
23567;SDS011;11962;50.838;4.430;2023-04-25T14:24:36;3.08;;;1.27;;
23567;SDS011;11962;50.838;4.430;2023-04-25T14:27:02;4.93;;;1.15;;
23567;SDS011;11962;50.838;4.430;2023-04-25T14:29:29;5.03;;;0.90;;
23567;SDS011;11962;50.838;4.430;2023-04-25T14:31:55;7.57;;;1.17;;
23567;SDS011;11962;50.838;4.430;2023-04-25T14:34:22;4.20;;;1.35;;
23567;SDS011;11962;50.838;4.430;2023-04-25T14:36:48;8.32;;;1.58;;
23567;SDS011;11962;50.838;4.430;2023-04-25T14:39:14;4.90;;;1.35;;
23567;SDS011;11962;50.838;4.430;2023-04-25T14:41:41;4.32;;;1.13;;
23567;SDS011;11962;50.838;4.430;2023-04-25T14:44:07;4.93;;;1.20;;
23567;SDS011;11962;50.838;4.430;2023-04-25T14:46:33;3.13;;;1.10;;
23567;SDS011;11962;50.838;4.430;2023-04-25T14:48:59;2.20;;;0.90;;
23567;SDS011;11962;50.838;4.430;2023-04-25T14:51:25;3.03;;;1.20;;
23567;SDS011;11962;50.838;4.430;2023-04-25T14:53:51;5.07;;;1.30;;
23567;SDS011;11962;50.838;4.430;2023-04-25T14:56:17;6.22;;;1.60;;
23567;SDS011;11962;50.838;4.430;2023-04-25T14:58:43;4.18;;;1.52;;
23567;SDS011;11962;50.838;4.430;2023-04-25T15:01:10;4.47;;;1.10;;
23567;SDS011;11962;50.838;4.430;2023-04-25T15:03:38;3.50;;;1.23;;
23567;SDS011;11962;50.838;4.430;2023-04-25T15:06:05;3.00;;;1.10;;
23567;SDS011;11962;50.838;4.430;2023-04-25T15:08:31;6.50;;;1.50;;
23567;SDS011;11962;50.838;4.430;2023-04-25T15:10:57;6.95;;;1.33;;